createdAt,value
2018-08-30T00:06:28.210Z,97.02
2018-08-30T00:21:32.242Z,97.76
2018-08-30T00:36:36.371Z,98.59
2018-08-30T00:51:40.470Z,100.00
2018-08-30T01:06:44.423Z,100.00
2018-08-30T01:21:48.518Z,99.75
2018-08-30T01:36:52.545Z,100.00
2018-08-30T01:51:56.499Z,100.00
2018-08-30T02:07:00.663Z,100.00
2018-08-30T02:22:05.083Z,100.00
2018-08-30T02:37:09.356Z,100.00
2018-08-30T02:52:13.506Z,100.00
2018-08-30T03:07:17.276Z,100.00
2018-08-30T03:22:21.292Z,100.00
2018-08-30T03:37:25.628Z,100.00
2018-08-30T03:52:29.795Z,100.00
2018-08-30T04:07:36.110Z,100.00
2018-08-30T04:22:39.868Z,98.84
2018-08-30T04:37:43.644Z,92.22
2018-08-30T04:52:47.765Z,82.74
2018-08-30T05:07:51.844Z,75.76
2018-08-30T05:22:56.057Z,68.02
2018-08-30T05:38:00.238Z,64.43
2018-08-30T05:53:04.007Z,61.64
2018-08-30T06:08:07.845Z,57.14
2018-08-30T06:23:11.619Z,49.24
2018-08-30T06:38:15.367Z,47.78
2018-08-30T06:53:19.603Z,44.34
2018-08-30T07:08:23.378Z,41.79
2018-08-30T07:23:27.095Z,40.89
2018-08-30T07:38:30.843Z,38.20
2018-08-30T07:53:34.611Z,36.75
2018-08-30T08:08:38.341Z,39.06
2018-08-30T08:23:42.142Z,36.38
2018-08-30T08:38:45.862Z,33.37
2018-08-30T08:53:49.712Z,34.43
2018-08-30T09:08:53.423Z,30.02
2018-08-30T09:23:57.188Z,28.92
2018-08-30T09:39:01.024Z,29.34
2018-08-30T09:54:04.896Z,29.98
2018-08-30T10:09:10.169Z,31.29
2018-08-30T10:24:13.926Z,29.35
2018-08-30T10:39:17.680Z,32.35
2018-08-30T10:54:21.491Z,27.90
2018-08-30T11:09:25.264Z,27.76
2018-08-30T11:24:29.013Z,32.04
2018-08-30T11:39:32.771Z,30.92
2018-08-30T11:54:36.499Z,24.47
2018-08-30T12:09:40.326Z,27.52
2018-08-30T12:24:44.090Z,26.70
2018-08-30T12:39:47.976Z,29.44
2018-08-30T12:54:51.745Z,28.81
2018-08-30T13:09:55.983Z,27.83
2018-08-30T13:25:00.039Z,26.35
2018-08-30T13:40:04.094Z,27.74
2018-08-30T13:55:07.617Z,27.85
2018-08-30T14:10:11.344Z,30.47
2018-08-30T14:25:15.651Z,32.52
2018-08-30T14:40:19.484Z,35.25
2018-08-30T14:55:23.194Z,39.12
2018-08-30T15:10:28.003Z,41.55
2018-08-30T15:25:31.767Z,44.03
2018-08-30T15:40:35.533Z,43.87
2018-08-30T15:55:39.317Z,44.06
2018-08-30T16:10:43.104Z,46.70
2018-08-30T16:25:46.852Z,48.22
2018-08-30T16:40:50.630Z,49.32
2018-08-30T16:55:55.361Z,51.31
2018-08-30T17:10:59.161Z,54.62
2018-08-30T17:26:02.936Z,55.99
2018-08-30T17:41:07.142Z,57.75
2018-08-30T17:56:10.940Z,59.53
2018-08-30T18:11:14.850Z,60.40
2018-08-30T18:26:18.469Z,60.42
2018-08-30T18:41:22.331Z,61.10
2018-08-30T18:56:26.111Z,61.72
2018-08-30T19:11:29.885Z,59.77
2018-08-30T19:26:34.046Z,59.49
2018-08-30T19:41:37.939Z,58.37
2018-08-30T19:56:41.780Z,56.18
2018-08-30T20:11:45.540Z,54.48
2018-08-30T20:26:49.371Z,61.46
2018-08-30T20:41:53.103Z,69.40
2018-08-30T20:56:56.961Z,72.13
2018-08-30T21:12:00.725Z,72.03
2018-08-30T21:27:04.527Z,76.10
2018-08-30T21:42:08.277Z,79.48
2018-08-30T21:57:12.006Z,79.48
2018-08-30T22:12:15.734Z,81.33
2018-08-30T22:27:19.473Z,82.66
2018-08-30T22:42:23.215Z,83.62
2018-08-30T22:57:26.971Z,83.03
2018-08-30T23:12:30.716Z,84.63
2018-08-30T23:27:34.461Z,84.41
2018-08-30T23:42:38.933Z,81.88
2018-08-30T23:57:53.895Z,80.99
